sensor_id;sensor_type;location;lat;lon;timestamp;temperature;humidity
71754;DHT22;59593;51.716;7.016;2023-08-06T14:36:10;17.30;99.90
71754;DHT22;59593;51.716;7.016;2023-08-06T14:38:56;17.30;99.90
71754;DHT22;59593;51.716;7.016;2023-08-06T15:27:30;16.70;99.90
71754;DHT22;59593;51.716;7.016;2023-08-06T18:31:26;14.90;99.90
71754;DHT22;59593;51.716;7.016;2023-08-06T18:33:55;14.80;99.90
71754;DHT22;59593;51.716;7.016;2023-08-06T18:39:23;14.70;99.90
71754;DHT22;59593;51.716;7.016;2023-08-06T18:41:49;14.80;99.90
71754;DHT22;59593;51.716;7.016;2023-08-06T18:44:19;14.80;99.90
71754;DHT22;59593;51.716;7.016;2023-08-06T18:46:48;14.60;99.90
71754;DHT22;59593;51.716;7.016;2023-08-06T18:49:25;14.70;99.90
71754;DHT22;59593;51.716;7.016;2023-08-06T18:51:53;14.90;99.90
71754;DHT22;59593;51.716;7.016;2023-08-06T18:54:21;15.00;99.90
71754;DHT22;59593;51.716;7.016;2023-08-06T18:56:48;14.90;99.90
71754;DHT22;59593;51.716;7.016;2023-08-06T18:59:20;14.90;99.90
71754;DHT22;59593;51.716;7.016;2023-08-06T19:01:54;14.80;99.90
71754;DHT22;59593;51.716;7.016;2023-08-06T21:21:33;14.40;99.90
71754;DHT22;59593;51.716;7.016;2023-08-06T21:24:01;14.40;99.90
71754;DHT22;59593;51.716;7.016;2023-08-06T21:26:29;14.40;99.90
71754;DHT22;59593;51.716;7.016;2023-08-06T21:29:04;14.30;99.90
71754;DHT22;59593;51.716;7.016;2023-08-06T21:31:30;14.30;99.90
71754;DHT22;59593;51.716;7.016;2023-08-06T21:33:58;14.30;99.90
71754;DHT22;59593;51.716;7.016;2023-08-06T21:36:24;14.20;99.90
71754;DHT22;59593;51.716;7.016;2023-08-06T21:38:50;14.20;99.90
71754;DHT22;59593;51.716;7.016;2023-08-06T21:41:16;14.30;99.90
71754;DHT22;59593;51.716;7.016;2023-08-06T21:43:45;14.30;99.90
71754;DHT22;59593;51.716;7.016;2023-08-06T21:46:16;14.30;99.90
71754;DHT22;59593;51.716;7.016;2023-08-06T21:48:46;14.20;99.90
71754;DHT22;59593;51.716;7.016;2023-08-06T21:51:15;14.20;99.90
71754;DHT22;59593;51.716;7.016;2023-08-06T21:53:42;14.20;99.90
71754;DHT22;59593;51.716;7.016;2023-08-06T21:56:11;14.20;99.90
71754;DHT22;59593;51.716;7.016;2023-08-06T22:01:32;14.10;99.90
71754;DHT22;59593;51.716;7.016;2023-08-06T22:06:33;14.10;99.90
71754;DHT22;59593;51.716;7.016;2023-08-06T22:08:58;14.10;99.90
71754;DHT22;59593;51.716;7.016;2023-08-06T22:11:27;14.10;99.90
71754;DHT22;59593;51.716;7.016;2023-08-06T22:13:53;14.10;99.90
71754;DHT22;59593;51.716;7.016;2023-08-06T22:16:18;14.10;99.90
71754;DHT22;59593;51.716;7.016;2023-08-06T22:18:47;14.00;99.90
71754;DHT22;59593;51.716;7.016;2023-08-06T22:21:17;14.10;99.90
71754;DHT22;59593;51.716;7.016;2023-08-06T22:23:45;14.10;99.90
71754;DHT22;59593;51.716;7.016;2023-08-06T22:26:14;14.10;99.90
71754;DHT22;59593;51.716;7.016;2023-08-06T22:28:43;14.10;99.90
71754;DHT22;59593;51.716;7.016;2023-08-06T22:31:12;14.10;99.90
71754;DHT22;59593;51.716;7.016;2023-08-06T22:33:41;14.10;99.90
71754;DHT22;59593;51.716;7.016;2023-08-06T22:36:06;14.10;99.90
71754;DHT22;59593;51.716;7.016;2023-08-06T22:38:34;14.10;99.90
71754;DHT22;59593;51.716;7.016;2023-08-06T22:41:00;14.10;99.90
71754;DHT22;59593;51.716;7.016;2023-08-06T22:43:30;14.10;99.90
71754;DHT22;59593;51.716;7.016;2023-08-06T22:45:59;14.10;99.90
71754;DHT22;59593;51.716;7.016;2023-08-06T22:48:25;14.10;99.90
71754;DHT22;59593;51.716;7.016;2023-08-06T22:50:59;14.10;99.90
71754;DHT22;59593;51.716;7.016;2023-08-06T22:53:24;14.00;99.90
71754;DHT22;59593;51.716;7.016;2023-08-06T22:55:55;14.00;99.90
71754;DHT22;59593;51.716;7.016;2023-08-06T22:58:24;14.00;99.90
71754;DHT22;59593;51.716;7.016;2023-08-06T23:00:49;14.00;99.90
71754;DHT22;59593;51.716;7.016;2023-08-06T23:03:19;14.00;99.90
71754;DHT22;59593;51.716;7.016;2023-08-06T23:16:07;14.10;99.90
71754;DHT22;59593;51.716;7.016;2023-08-06T23:18:32;14.00;99.90
71754;DHT22;59593;51.716;7.016;2023-08-06T23:20:58;14.10;99.90
71754;DHT22;59593;51.716;7.016;2023-08-06T23:23:24;14.10;99.90
71754;DHT22;59593;51.716;7.016;2023-08-06T23:25:49;14.10;99.90
71754;DHT22;59593;51.716;7.016;2023-08-06T23:28:15;14.10;99.90
71754;DHT22;59593;51.716;7.016;2023-08-06T23:30:43;14.10;99.90
71754;DHT22;59593;51.716;7.016;2023-08-06T23:33:14;14.00;99.90
71754;DHT22;59593;51.716;7.016;2023-08-06T23:35:40;14.10;99.90
71754;DHT22;59593;51.716;7.016;2023-08-06T23:38:06;14.00;99.90
71754;DHT22;59593;51.716;7.016;2023-08-06T23:40:31;14.10;99.90
71754;DHT22;59593;51.716;7.016;2023-08-06T23:42:57;14.00;99.90
71754;DHT22;59593;51.716;7.016;2023-08-06T23:45:23;14.00;99.90
71754;DHT22;59593;51.716;7.016;2023-08-06T23:47:48;14.00;99.90
71754;DHT22;59593;51.716;7.016;2023-08-06T23:50:15;14.10;99.90
71754;DHT22;59593;51.716;7.016;2023-08-06T23:52:40;14.10;99.90
71754;DHT22;59593;51.716;7.016;2023-08-06T23:55:09;14.10;99.90
71754;DHT22;59593;51.716;7.016;2023-08-06T23:57:35;14.10;99.90
